Time;durP1;ratioP1;P1;durP2;ratioP2;P2;SDS_P1;SDS_P2;PMS_P1;PMS_P2;Temp;Humidity;BMP_temperature;BMP_pressure;BME280_temperature;BME280_humidity;BME280_pressure;Samples;Min_cycle;Max_cycle;Signal;HPM_P1;HPM_P2
2021/05/04 00:01:50;;;;;;;6.33;3.80;;;7.90;79.20;;;;;;4140238;28;20470;-72
2021/05/04 00:03:52;;;;;;;6.70;3.43;;;7.90;79.60;;;;;;4138319;28;20472;-72
2021/05/04 00:05:53;;;;;;;5.73;3.33;;;7.80;79.80;;;;;;4134125;28;20549;-72
2021/05/04 00:07:55;;;;;;;4.77;3.07;;;7.80;80.20;;;;;;4132841;28;22306;-72
2021/05/04 00:09:56;;;;;;;6.13;3.53;;;7.80;80.60;;;;;;4135395;28;20475;-72
2021/05/04 00:11:57;;;;;;;4.90;3.07;;;7.70;81.10;;;;;;4139171;28;20489;-72
2021/05/04 00:13:59;;;;;;;5.13;3.30;;;7.70;81.40;;;;;;4144338;28;20654;-72
2021/05/04 00:16:00;;;;;;;5.43;3.27;;;7.70;81.90;;;;;;4165532;22;20510;-81
2021/05/04 00:18:01;;;;;;;6.67;3.27;;;7.60;82.40;;;;;;4155832;28;20215;-80
2021/05/04 00:20:04;;;;;;;5.30;3.47;;;7.50;82.90;;;;;;4157642;28;20242;-83
2021/05/04 00:22:05;;;;;;;7.17;3.37;;;7.60;83.20;;;;;;4158196;28;20519;-81
2021/05/04 00:24:09;;;;;;;5.27;3.30;;;7.50;83.50;;;;;;4161556;28;20528;-81
2021/05/04 00:26:11;;;;;;;9.20;4.30;;;7.50;83.80;;;;;;4135527;28;20503;-80
2021/05/04 00:28:12;;;;;;;7.40;3.73;;;7.50;84.10;;;;;;4143724;28;20829;-81
2021/05/04 00:30:14;;;;;;;7.00;3.50;;;7.50;84.60;;;;;;4148118;28;20526;-80
2021/05/04 00:32:15;;;;;;;7.73;4.27;;;7.40;84.80;;;;;;4148258;28;20832;-80
2021/05/04 00:34:16;;;;;;;8.73;4.23;;;7.40;85.30;;;;;;4137004;28;20462;-80
2021/05/04 00:36:18;;;;;;;5.27;3.70;;;7.40;85.70;;;;;;4135823;28;20491;-81
2021/05/04 00:38:19;;;;;;;4.60;3.43;;;7.30;86.10;;;;;;4140747;28;20451;-80
2021/05/04 00:40:21;;;;;;;6.07;3.47;;;7.30;86.40;;;;;;4137280;28;20536;-81
2021/05/04 00:42:25;;;;;;;7.40;3.90;;;7.20;86.60;;;;;;4138398;28;20470;-80
2021/05/04 00:44:26;;;;;;;7.53;3.70;;;7.20;86.70;;;;;;4143812;28;20465;-80
2021/05/04 00:46:27;;;;;;;5.57;3.60;;;7.20;86.80;;;;;;4136060;28;20470;-81
2021/05/04 00:48:30;;;;;;;6.97;3.80;;;7.30;87.00;;;;;;4141414;28;20463;-81
2021/05/04 00:50:31;;;;;;;6.83;4.03;;;7.20;86.90;;;;;;4144379;28;20483;-81
2021/05/04 00:52:33;;;;;;;7.07;4.20;;;7.20;87.00;;;;;;4136104;28;20497;-80
2021/05/04 00:54:34;;;;;;;8.17;4.13;;;7.20;87.10;;;;;;4142621;28;20826;-80
2021/05/04 00:56:38;;;;;;;5.07;3.40;;;7.30;87.00;;;;;;4135727;28;20869;-80
2021/05/04 00:58:44;;;;;;;7.73;3.80;;;7.20;86.90;;;;;;4145825;28;20533;-81
2021/05/04 01:00:46;;;;;;;4.90;3.87;;;7.20;86.70;;;;;;4150538;28;20523;-81
2021/05/04 01:02:48;;;;;;;6.97;4.77;;;7.20;86.40;;;;;;4156748;28;20955;-81
2021/05/04 01:04:49;;;;;;;7.57;4.13;;;7.20;86.10;;;;;;4160701;28;20580;-81
2021/05/04 01:06:50;;;;;;;7.40;4.40;;;7.20;85.70;;;;;;4157959;28;20438;-81
2021/05/04 01:08:52;;;;;;;7.00;4.00;;;7.20;85.70;;;;;;4154636;28;20475;-81
2021/05/04 01:10:53;;;;;;;5.93;3.97;;;7.20;85.60;;;;;;4142818;28;20459;-80
2021/05/04 01:12:55;;;;;;;6.23;3.73;;;7.20;85.70;;;;;;4141093;28;20503;-81
2021/05/04 01:14:57;;;;;;;6.10;4.00;;;7.20;85.60;;;;;;4134931;28;20490;-80
2021/05/04 01:16:58;;;;;;;8.37;4.10;;;7.20;85.70;;;;;;4135114;28;20982;-81
2021/05/04 01:19:00;;;;;;;8.77;4.23;;;7.20;85.60;;;;;;4142433;28;20520;-80
2021/05/04 01:21:02;;;;;;;6.97;3.87;;;7.20;85.60;;;;;;4145573;28;20978;-81
2021/05/04 01:23:03;;;;;;;8.10;3.97;;;7.20;85.80;;;;;;4146473;28;20454;-81
2021/05/04 01:25:06;;;;;;;8.23;4.30;;;7.20;86.00;;;;;;4143918;28;20490;-81
2021/05/04 01:27:08;;;;;;;7.20;4.23;;;7.20;85.50;;;;;;4143790;28;20504;-80
2021/05/04 01:29:09;;;;;;;6.33;3.90;;;7.20;85.30;;;;;;4146982;28;20471;-81
2021/05/04 01:31:11;;;;;;;7.47;4.40;;;7.30;84.70;;;;;;4136812;28;20465;-81
2021/05/04 01:33:12;;;;;;;7.80;4.17;;;7.30;84.90;;;;;;4135592;28;20502;-80
2021/05/04 01:35:13;;;;;;;6.87;3.97;;;7.30;84.00;;;;;;4144325;28;20497;-80
2021/05/04 01:37:15;;;;;;;5.93;3.83;;;7.40;84.00;;;;;;4147568;28;20458;-80
2021/05/04 01:39:17;;;;;;;11.20;4.83;;;7.40;84.10;;;;;;4146280;28;20458;-80
2021/05/04 01:41:18;;;;;;;7.67;4.20;;;7.40;83.80;;;;;;4144768;28;20837;-81
2021/05/04 01:43:20;;;;;;;5.63;3.73;;;7.40;83.70;;;;;;4138340;28;20471;-80
2021/05/04 01:45:21;;;;;;;7.87;4.23;;;7.20;83.30;;;;;;4147729;28;20484;-79
2021/05/04 01:47:22;;;;;;;7.13;4.70;;;7.50;83.20;;;;;;4134691;28;20444;-80
2021/05/04 01:49:23;;;;;;;7.03;4.00;;;7.50;83.30;;;;;;4140708;28;20466;-80
2021/05/04 01:51:26;;;;;;;9.73;4.77;;;7.50;83.40;;;;;;4143901;28;20870;-80
2021/05/04 01:53:31;;;;;;;7.53;4.30;;;7.50;83.50;;;;;;4144286;28;20973;-80
2021/05/04 01:55:32;;;;;;;11.17;4.87;;;7.50;83.40;;;;;;4136363;28;20482;-80
2021/05/04 01:57:34;;;;;;;8.53;4.30;;;7.50;83.30;;;;;;4148040;28;20454;-80
2021/05/04 01:59:35;;;;;;;6.60;4.20;;;7.50;83.30;;;;;;4150386;28;20943;-80
2021/05/04 02:01:36;;;;;;;8.60;4.47;;;7.50;83.30;;;;;;4150402;28;20457;-80
2021/05/04 02:03:37;;;;;;;5.80;4.00;;;7.60;82.90;;;;;;4150656;28;20458;-80
2021/05/04 02:05:39;;;;;;;7.50;4.53;;;7.60;82.70;;;;;;4147621;28;20505;-80
2021/05/04 02:07:40;;;;;;;9.17;4.43;;;7.60;82.40;;;;;;4145325;28;20469;-80
2021/05/04 02:09:42;;;;;;;6.63;4.23;;;7.60;82.10;;;;;;4143980;28;20955;-80
2021/05/04 02:11:43;;;;;;;6.70;4.10;;;7.70;81.20;;;;;;4141498;28;20469;-80
2021/05/04 02:13:44;;;;;;;7.07;4.30;;;7.70;80.60;;;;;;4149362;28;20458;-80
2021/05/04 02:15:46;;;;;;;8.07;4.60;;;7.80;80.20;;;;;;4142660;28;20513;-81
2021/05/04 02:17:47;;;;;;;8.43;4.23;;;7.80;79.40;;;;;;4135525;28;20467;-79
2021/05/04 02:19:48;;;;;;;7.37;4.27;;;7.80;79.30;;;;;;4134740;28;20517;-80
2021/05/04 02:21:49;;;;;;;7.80;4.77;;;7.90;78.50;;;;;;4148263;28;20458;-80
2021/05/04 02:23:51;;;;;;;7.17;4.60;;;8.00;78.60;;;;;;4156254;28;20458;-81
2021/05/04 02:25:53;;;;;;;8.83;4.33;;;7.90;78.80;;;;;;4154259;28;20486;-81
2021/05/04 02:27:54;;;;;;;8.50;4.47;;;7.90;77.80;;;;;;4151377;28;20471;-81
2021/05/04 02:29:56;;;;;;;8.00;4.37;;;7.90;78.00;;;;;;4141814;28;20934;-81
2021/05/04 02:31:58;;;;;;;6.60;4.03;;;8.00;78.20;;;;;;4138655;28;20493;-81
2021/05/04 02:33:59;;;;;;;9.47;4.50;;;8.00;78.30;;;;;;4147487;28;20485;-80
2021/05/04 02:36:00;;;;;;;7.50;4.10;;;8.00;77.90;;;;;;4144449;28;20492;-81
2021/05/04 02:38:01;;;;;;;6.33;3.77;;;8.00;77.90;;;;;;4146802;28;20471;-80
2021/05/04 02:40:04;;;;;;;7.20;3.80;;;8.00;78.00;;;;;;4145352;28;20470;-80
2021/05/04 02:42:06;;;;;;;7.23;3.90;;;8.00;78.00;;;;;;4148405;28;20537;-81
2021/05/04 02:44:08;;;;;;;5.73;3.70;;;8.00;77.70;;;;;;4145595;28;20459;-81
2021/05/04 02:46:09;;;;;;;7.10;3.93;;;8.00;77.20;;;;;;4140246;28;20480;-81
2021/05/04 02:48:11;;;;;;;6.47;3.50;;;8.00;76.60;;;;;;4136070;28;20988;-81
2021/05/04 02:50:13;;;;;;;6.80;4.23;;;8.10;76.40;;;;;;4132719;28;20475;-80
2021/05/04 02:52:14;;;;;;;7.53;3.87;;;8.10;76.10;;;;;;4142461;28;21040;-80
2021/05/04 02:54:15;;;;;;;6.47;3.87;;;8.10;75.60;;;;;;4142203;28;20850;-81
2021/05/04 02:56:17;;;;;;;7.03;3.97;;;8.10;75.40;;;;;;4143104;28;20521;-80
2021/05/04 02:58:19;;;;;;;5.43;3.60;;;8.40;74.80;;;;;;4140659;28;20478;-81
2021/05/04 03:00:20;;;;;;;7.87;3.90;;;8.10;74.70;;;;;;4137827;28;20553;-80
2021/05/04 03:02:22;;;;;;;7.23;3.67;;;8.10;74.30;;;;;;4137386;28;20493;-80
2021/05/04 03:04:23;;;;;;;5.97;3.60;;;8.10;73.90;;;;;;4147840;28;20967;-81
2021/05/04 03:06:24;;;;;;;6.63;3.77;;;8.10;72.80;;;;;;4133916;28;20975;-81
2021/05/04 03:08:25;;;;;;;5.50;3.40;;;8.10;73.10;;;;;;4133720;28;20464;-80
2021/05/04 03:10:27;;;;;;;5.07;2.83;;;8.10;72.80;;;;;;4142591;28;20469;-80
2021/05/04 03:12:28;;;;;;;4.57;3.10;;;8.10;73.00;;;;;;4147240;28;20494;-80
2021/05/04 03:14:30;;;;;;;5.03;3.00;;;8.00;73.60;;;;;;4137457;28;20575;-80
2021/05/04 03:16:31;;;;;;;5.70;3.40;;;8.00;72.50;;;;;;4135196;28;20458;-80
2021/05/04 03:18:33;;;;;;;8.40;3.50;;;8.00;72.90;;;;;;4142317;28;20523;-81
2021/05/04 03:20:34;;;;;;;5.40;3.43;;;8.10;73.10;;;;;;4143251;28;20471;-80
2021/05/04 03:22:35;;;;;;;6.20;3.30;;;8.00;73.40;;;;;;4147508;28;20467;-81
2021/05/04 03:24:36;;;;;;;6.43;3.50;;;8.00;73.90;;;;;;4135913;28;20480;-80
2021/05/04 03:26:38;;;;;;;6.40;3.53;;;8.00;74.30;;;;;;4143736;28;20808;-81
2021/05/04 03:28:39;;;;;;;6.33;3.70;;;8.00;74.80;;;;;;4149467;28;20907;-81
2021/05/04 03:30:41;;;;;;;7.07;3.83;;;8.00;75.10;;;;;;4140503;28;20468;-80
2021/05/04 03:32:43;;;;;;;5.53;3.23;;;7.90;75.70;;;;;;4140182;28;20493;-81
2021/05/04 03:34:45;;;;;;;5.80;3.40;;;7.90;76.10;;;;;;4148054;28;20581;-80
2021/05/04 03:36:46;;;;;;;6.43;3.23;;;7.90;76.50;;;;;;4148723;28;20450;-81
2021/05/04 03:38:47;;;;;;;5.03;3.27;;;7.90;77.00;;;;;;4146877;28;20533;-81
2021/05/04 03:40:48;;;;;;;8.17;3.50;;;7.80;77.40;;;;;;4146101;28;20469;-80
2021/05/04 03:42:50;;;;;;;5.73;3.70;;;7.80;77.90;;;;;;4147773;28;20474;-80
2021/05/04 03:44:51;;;;;;;7.40;3.87;;;7.80;78.30;;;;;;4146311;28;20570;-80
2021/05/04 03:46:53;;;;;;;7.20;3.73;;;7.80;79.50;;;;;;4155945;28;20466;-81
2021/05/04 03:48:54;;;;;;;6.27;3.57;;;7.80;79.00;;;;;;4159008;28;20466;-80
2021/05/04 03:50:56;;;;;;;6.90;3.87;;;7.80;79.20;;;;;;4155932;28;20951;-81
2021/05/04 03:52:59;;;;;;;7.33;3.70;;;7.80;79.70;;;;;;4147193;28;20487;-81
2021/05/04 03:55:00;;;;;;;6.90;3.73;;;7.80;80.50;;;;;;4153972;28;20487;-80
2021/05/04 03:57:01;;;;;;;8.57;4.23;;;7.80;80.40;;;;;;4139938;28;20470;-81
2021/05/04 03:59:03;;;;;;;6.97;3.63;;;7.80;80.80;;;;;;4132261;28;20458;-81
2021/05/04 04:01:04;;;;;;;6.87;3.87;;;7.80;81.00;;;;;;4136663;28;20509;-81
2021/05/04 04:03:07;;;;;;;7.80;4.37;;;7.80;81.60;;;;;;4131063;28;20450;-81
2021/05/04 04:05:09;;;;;;;6.40;4.20;;;7.80;81.80;;;;;;4142512;28;20851;-81
2021/05/04 04:07:10;;;;;;;5.63;3.70;;;7.80;82.00;;;;;;4143762;28;20537;-81
2021/05/04 04:09:11;;;;;;;6.30;4.33;;;7.80;82.20;;;;;;4137281;28;20477;-81
2021/05/04 04:11:13;;;;;;;7.40;4.13;;;7.80;82.50;;;;;;4141636;28;20492;-81
2021/05/04 04:13:14;;;;;;;6.53;4.23;;;7.80;82.70;;;;;;4139054;28;20497;-81
2021/05/04 04:15:16;;;;;;;7.83;4.33;;;7.80;82.80;;;;;;4138658;28;20490;-81
2021/05/04 04:17:17;;;;;;;8.53;4.30;;;7.80;83.10;;;;;;4131705;28;20482;-81
2021/05/04 04:19:19;;;;;;;8.40;4.13;;;7.80;83.10;;;;;;4138980;28;20932;-81
2021/05/04 04:21:20;;;;;;;9.73;4.33;;;7.80;83.30;;;;;;4134472;28;20471;-80
2021/05/04 04:23:22;;;;;;;8.90;4.50;;;7.90;83.30;;;;;;4135561;28;20477;-81
2021/05/04 04:25:23;;;;;;;7.80;4.60;;;7.90;83.10;;;;;;4143197;28;20502;-81
2021/05/04 04:27:24;;;;;;;7.50;4.10;;;7.90;83.00;;;;;;4130729;28;20482;-81
2021/05/04 04:29:26;;;;;;;8.33;4.77;;;8.00;83.10;;;;;;4137202;28;20481;-81
2021/05/04 04:31:27;;;;;;;8.00;4.60;;;8.00;83.20;;;;;;4146375;28;20462;-81
2021/05/04 04:33:29;;;;;;;8.03;4.40;;;8.10;82.80;;;;;;4140451;28;20557;-81
2021/05/04 04:35:31;;;;;;;6.87;4.27;;;8.20;82.20;;;;;;4136424;28;20519;-81
2021/05/04 04:37:32;;;;;;;8.80;4.63;;;8.20;82.10;;;;;;4149173;28;20544;-81
2021/05/04 04:39:33;;;;;;;6.90;4.00;;;8.20;82.10;;;;;;4143244;28;20968;-81
2021/05/04 04:41:35;;;;;;;8.30;4.20;;;8.20;82.00;;;;;;4136342;28;20558;-81
2021/05/04 04:43:36;;;;;;;7.37;4.43;;;8.30;81.50;;;;;;4143853;28;20478;-81
2021/05/04 04:45:38;;;;;;;7.63;4.50;;;8.30;81.50;;;;;;4145972;28;20532;-81
2021/05/04 04:47:40;;;;;;;9.77;4.63;;;8.40;81.60;;;;;;4144956;28;20466;-81
2021/05/04 04:49:41;;;;;;;7.27;4.40;;;8.40;81.30;;;;;;4141376;28;20459;-81
2021/05/04 04:51:43;;;;;;;9.60;4.67;;;8.50;81.20;;;;;;4150235;28;20478;-81
2021/05/04 04:53:45;;;;;;;9.93;4.87;;;8.60;81.10;;;;;;4144849;28;20479;-81
2021/05/04 04:55:46;;;;;;;7.90;4.40;;;8.60;81.10;;;;;;4140071;28;20828;-81
2021/05/04 04:57:47;;;;;;;8.57;4.57;;;8.60;81.30;;;;;;4135306;28;20472;-81
2021/05/04 04:59:49;;;;;;;9.17;4.60;;;8.60;81.10;;;;;;4134749;28;20463;-81
2021/05/04 05:01:50;;;;;;;9.20;4.57;;;8.70;80.60;;;;;;4142939;28;20968;-81
2021/05/04 05:03:51;;;;;;;6.73;4.20;;;8.80;80.40;;;;;;4134155;28;20948;-81
2021/05/04 05:05:52;;;;;;;6.03;3.90;;;8.80;80.30;;;;;;4146567;28;20485;-81
2021/05/04 05:07:55;;;;;;;8.63;4.50;;;8.80;80.20;;;;;;4147464;28;20463;-81
2021/05/04 05:09:56;;;;;;;7.97;4.23;;;8.90;80.10;;;;;;4136480;28;20475;-81
2021/05/04 05:11:57;;;;;;;7.83;4.60;;;9.00;79.60;;;;;;4138381;28;20479;-81
2021/05/04 05:13:58;;;;;;;8.00;4.40;;;8.90;78.80;;;;;;4139790;28;20987;-81
2021/05/04 05:15:59;;;;;;;6.37;4.20;;;9.00;79.20;;;;;;4143218;28;21016;-81
2021/05/04 05:18:04;;;;;;;7.63;4.47;;;9.00;78.20;;;;;;4146921;28;20578;-81
2021/05/04 05:20:07;;;;;;;7.17;4.00;;;9.10;77.50;;;;;;4142102;28;20493;-80
2021/05/04 05:22:08;;;;;;;7.47;4.27;;;9.20;77.50;;;;;;4143745;28;20885;-81
2021/05/04 05:24:10;;;;;;;7.77;4.53;;;9.20;77.40;;;;;;4139123;28;20474;-81
2021/05/04 05:26:12;;;;;;;6.67;4.23;;;9.30;76.70;;;;;;4140840;28;20516;-81
2021/05/04 05:28:14;;;;;;;6.83;4.10;;;9.30;76.60;;;;;;4149674;28;20480;-81
2021/05/04 05:30:15;;;;;;;6.73;3.63;;;9.30;76.20;;;;;;4145639;28;20251;-81
2021/05/04 05:32:17;;;;;;;9.63;4.40;;;9.30;76.00;;;;;;4144716;28;20519;-81
2021/05/04 05:34:18;;;;;;;7.10;4.30;;;9.40;74.80;;;;;;4145039;28;20478;-81
2021/05/04 05:36:19;;;;;;;9.20;4.20;;;9.40;74.40;;;;;;4140902;28;20471;-81
2021/05/04 05:38:20;;;;;;;6.63;4.07;;;9.50;73.70;;;;;;4144646;28;20255;-81
2021/05/04 05:40:23;;;;;;;6.63;3.63;;;9.60;71.80;;;;;;4137986;28;20845;-81
2021/05/04 05:42:24;;;;;;;7.27;4.30;;;9.70;71.30;;;;;;4141285;28;20839;-81
2021/05/04 05:44:25;;;;;;;7.10;4.00;;;9.70;70.90;;;;;;4142269;28;20482;-82
2021/05/04 05:46:30;;;;;;;6.93;3.73;;;9.80;70.90;;;;;;4136531;28;20462;-79
2021/05/04 05:48:32;;;;;;;8.73;4.97;;;9.90;69.30;;;;;;4146404;28;20208;-83
2021/05/04 05:50:33;;;;;;;34.87;17.03;;;9.90;69.20;;;;;;4146546;28;20221;-82
2021/05/04 05:52:34;;;;;;;6.83;4.33;;;10.00;69.10;;;;;;4137441;28;20224;-80
2021/05/04 05:54:36;;;;;;;10.77;4.17;;;10.10;68.10;;;;;;4143653;28;20470;-80
2021/05/04 05:56:39;;;;;;;7.67;3.90;;;10.10;67.80;;;;;;4141943;28;20740;-80
2021/05/04 05:58:40;;;;;;;6.73;3.73;;;10.10;68.00;;;;;;4141339;28;20216;-80
2021/05/04 06:00:42;;;;;;;7.87;4.03;;;10.20;67.80;;;;;;4142448;28;20747;-80
2021/05/04 06:02:43;;;;;;;7.20;3.90;;;10.20;68.40;;;;;;4140868;28;20213;-81
2021/05/04 06:04:44;;;;;;;5.87;4.10;;;10.20;67.80;;;;;;4141200;28;20231;-80
2021/05/04 06:06:45;;;;;;;5.77;3.80;;;10.30;68.00;;;;;;4141274;28;20223;-80
2021/05/04 06:08:47;;;;;;;8.47;4.13;;;10.30;67.50;;;;;;4140131;28;20207;-80
2021/05/04 06:10:48;;;;;;;7.00;4.00;;;10.30;67.80;;;;;;4131203;28;20277;-80
2021/05/04 06:13:00;;;;;;;4.97;3.57;;;10.40;66.30;;;;;;4142527;28;20756;-79
2021/05/04 06:15:02;;;;;;;7.57;3.77;;;10.50;65.90;;;;;;4138981;28;20227;-79
2021/05/04 06:17:03;;;;;;;6.60;3.67;;;10.50;65.70;;;;;;4143656;28;20232;-81
2021/05/04 06:19:04;;;;;;;5.87;3.60;;;10.60;65.90;;;;;;4139010;28;20224;-84
2021/05/04 06:21:05;;;;;;;6.73;3.47;;;10.60;64.80;;;;;;4143946;28;20224;-82
2021/05/04 06:23:07;;;;;;;9.17;3.70;;;10.60;65.00;;;;;;4136951;28;20215;-84
2021/05/04 06:25:09;;;;;;;5.67;3.70;;;10.70;64.60;;;;;;4138927;28;20263;-82
2021/05/04 06:27:11;;;;;;;6.50;4.20;;;10.80;64.70;;;;;;4138492;28;20292;-83
2021/05/04 06:29:13;;;;;;;6.20;3.90;;;10.80;64.20;;;;;;4142178;28;20235;-82
2021/05/04 06:31:15;;;;;;;8.20;4.30;;;10.80;63.60;;;;;;4143089;28;20273;-81
2021/05/04 06:33:16;;;;;;;6.30;3.87;;;11.10;63.00;;;;;;4139054;28;20231;-81
2021/05/04 06:35:19;;;;;;;6.37;3.63;;;10.90;61.90;;;;;;4128068;28;20238;-82
2021/05/04 06:37:21;;;;;;;5.80;3.70;;;11.00;62.60;;;;;;4136737;28;20298;-82
2021/05/04 06:39:22;;;;;;;6.53;4.03;;;11.00;61.60;;;;;;4137428;28;20263;-81
2021/05/04 06:41:23;;;;;;;6.23;3.60;;;11.10;62.40;;;;;;4132474;28;20231;-81
2021/05/04 06:43:24;;;;;;;11.30;4.17;;;11.10;61.40;;;;;;4133370;28;20677;-81
2021/05/04 06:45:29;;;;;;;6.53;3.80;;;11.20;62.50;;;;;;4137644;28;20264;-81
2021/05/04 06:47:31;;;;;;;22.37;11.90;;;11.20;60.50;;;;;;4140661;28;20204;-84
2021/05/04 06:49:32;;;;;;;8.60;4.30;;;11.30;60.30;;;;;;4143629;28;20220;-82
2021/05/04 06:51:33;;;;;;;6.03;3.70;;;11.30;60.40;;;;;;4130788;28;20750;-84
2021/05/04 06:53:34;;;;;;;5.70;3.80;;;11.30;60.60;;;;;;4136769;28;20231;-82
2021/05/04 06:55:36;;;;;;;7.60;3.50;;;11.30;60.80;;;;;;4138860;28;20237;-80
2021/05/04 06:57:37;;;;;;;7.47;3.43;;;11.30;61.40;;;;;;4135814;28;20221;-82
2021/05/04 06:59:39;;;;;;;5.17;3.23;;;11.30;61.40;;;;;;4136193;28;20222;-83
2021/05/04 07:01:41;;;;;;;7.37;3.50;;;11.30;61.20;;;;;;4135343;28;20236;-82
2021/05/04 07:03:42;;;;;;;5.17;3.50;;;11.30;60.10;;;;;;4134571;28;20567;-84
2021/05/04 07:05:43;;;;;;;5.37;3.57;;;11.30;61.10;;;;;;4134809;28;20555;-82
2021/05/04 07:07:45;;;;;;;6.63;3.63;;;11.40;62.50;;;;;;4137242;28;20236;-81
2021/05/04 07:09:46;;;;;;;6.53;3.80;;;11.30;62.60;;;;;;4136378;28;20209;-83
2021/05/04 07:11:47;;;;;;;7.37;3.90;;;11.30;64.30;;;;;;4136985;28;20276;-83
2021/05/04 07:13:48;;;;;;;8.90;3.93;;;11.30;66.50;;;;;;4144638;28;20565;-83
2021/05/04 07:15:50;;;;;;;7.70;3.67;;;11.20;67.70;;;;;;4145372;28;20235;-83
2021/05/04 07:17:52;;;;;;;6.97;3.93;;;11.20;67.70;;;;;;4140912;28;20235;-82
2021/05/04 07:19:54;;;;;;;5.80;3.47;;;11.40;68.30;;;;;;4139515;28;20216;-84
2021/05/04 07:21:56;;;;;;;5.87;3.70;;;11.10;71.30;;;;;;4144373;28;20215;-82
2021/05/04 07:23:57;;;;;;;5.43;3.50;;;11.10;67.60;;;;;;4145108;28;20611;-83
2021/05/04 07:26:00;;;;;;;5.50;3.27;;;11.10;70.20;;;;;;4143547;28;20240;-85
2021/05/04 07:28:01;;;;;;;5.70;3.57;;;11.00;70.70;;;;;;4154878;28;20282;-85
2021/05/04 07:30:03;;;;;;;6.13;3.53;;;11.10;70.00;;;;;;4147859;28;20323;-86
2021/05/04 07:32:05;;;;;;;5.57;3.40;;;11.10;70.40;;;;;;4151359;28;20733;-85
2021/05/04 07:34:07;;;;;;;7.03;4.17;;;11.20;70.00;;;;;;4138611;28;20251;-83
2021/05/04 07:36:09;;;;;;;5.67;3.37;;;11.20;70.30;;;;;;4135294;28;20233;-82
2021/05/04 07:38:10;;;;;;;4.50;3.30;;;11.30;69.70;;;;;;4131638;28;20210;-82
2021/05/04 07:40:12;;;;;;;6.13;3.60;;;11.30;69.90;;;;;;4132782;28;20702;-83
2021/05/04 07:42:13;;;;;;;5.07;3.57;;;11.20;67.90;;;;;;4137123;28;20216;-83
2021/05/04 07:44:15;;;;;;;5.93;3.37;;;11.30;71.10;;;;;;4138160;28;20217;-83
2021/05/04 07:46:16;;;;;;;5.00;3.40;;;11.40;72.40;;;;;;4137757;28;20232;-82
2021/05/04 07:48:18;;;;;;;7.27;3.53;;;11.40;71.00;;;;;;4137294;28;20619;-85
2021/05/04 07:50:20;;;;;;;4.93;3.17;;;11.50;69.10;;;;;;4134217;28;20227;-83
2021/05/04 07:52:21;;;;;;;7.97;3.53;;;11.50;67.30;;;;;;4137175;28;20578;-83
2021/05/04 07:54:22;;;;;;;5.20;3.60;;;11.50;67.30;;;;;;4137081;28;20259;-79
2021/05/04 07:56:24;;;;;;;11.67;7.43;;;11.50;67.50;;;;;;4137120;28;20686;-85
2021/05/04 07:58:25;;;;;;;37.33;18.60;;;11.60;65.10;;;;;;4135506;28;20220;-80
2021/05/04 08:00:26;;;;;;;11.60;5.77;;;11.60;66.00;;;;;;4139059;28;20264;-82
2021/05/04 08:02:27;;;;;;;8.03;3.03;;;11.70;65.70;;;;;;4141215;28;20217;-83
2021/05/04 08:04:29;;;;;;;5.60;3.30;;;11.70;64.90;;;;;;4131297;28;20612;-81
2021/05/04 08:06:31;;;;;;;6.83;3.27;;;11.80;64.30;;;;;;4135257;28;20303;-83
2021/05/04 08:08:35;;;;;;;5.00;3.20;;;11.80;64.70;;;;;;4134008;28;20214;-83
2021/05/04 08:10:36;;;;;;;4.27;2.90;;;11.90;63.70;;;;;;4137716;28;20325;-82
2021/05/04 08:12:38;;;;;;;7.20;3.33;;;11.90;63.10;;;;;;4135427;28;20235;-83
2021/05/04 08:14:39;;;;;;;5.07;3.10;;;12.00;63.70;;;;;;4135942;28;20237;-87
2021/05/04 08:16:40;;;;;;;4.97;2.97;;;12.10;64.00;;;;;;4137010;28;20299;-82
2021/05/04 08:18:43;;;;;;;6.60;3.20;;;12.20;63.20;;;;;;4135759;28;20268;-82
2021/05/04 08:20:48;;;;;;;8.20;3.20;;;12.20;62.20;;;;;;4140620;28;20255;-84
2021/05/04 08:22:50;;;;;;;4.23;2.83;;;12.30;60.10;;;;;;4138185;28;20303;-82
2021/05/04 08:24:52;;;;;;;3.73;2.70;;;12.30;60.40;;;;;;4136810;28;20245;-84
2021/05/04 08:26:53;;;;;;;4.07;2.67;;;12.30;60.30;;;;;;4140875;28;20660;-82
2021/05/04 08:28:55;;;;;;;4.07;2.50;;;12.30;58.70;;;;;;4136244;28;20229;-85
2021/05/04 08:30:57;;;;;;;3.70;2.43;;;12.40;58.30;;;;;;4137665;28;20287;-85
2021/05/04 08:32:58;;;;;;;5.33;2.30;;;12.40;56.60;;;;;;4140131;28;20243;-81
2021/05/04 08:34:59;;;;;;;5.20;2.63;;;12.40;55.60;;;;;;4134543;28;20610;-82
2021/05/04 08:37:01;;;;;;;4.07;2.00;;;12.40;54.70;;;;;;4132660;28;20301;-82
2021/05/04 08:39:05;;;;;;;3.13;2.20;;;12.50;54.30;;;;;;4139465;28;20210;-84
2021/05/04 08:41:07;;;;;;;3.47;2.70;;;12.50;54.50;;;;;;4136198;28;20243;-82
2021/05/04 08:43:09;;;;;;;4.73;2.23;;;12.60;54.00;;;;;;4140347;28;20212;-84
2021/05/04 08:45:11;;;;;;;6.13;2.03;;;12.60;54.10;;;;;;4138860;28;20234;-82
2021/05/04 08:47:13;;;;;;;3.67;2.07;;;12.60;54.20;;;;;;4133685;28;20309;-83
2021/05/04 08:49:15;;;;;;;13.03;6.93;;;12.70;54.70;;;;;;4130033;28;20226;-85
2021/05/04 08:51:17;;;;;;;29.57;13.87;;;12.70;54.80;;;;;;4129319;28;20213;-82
2021/05/04 08:53:18;;;;;;;4.63;2.30;;;12.70;54.70;;;;;;4136864;28;20226;-82
2021/05/04 08:55:21;;;;;;;9.70;1.80;;;12.70;54.80;;;;;;4139149;28;20242;-82
2021/05/04 08:57:22;;;;;;;5.67;1.50;;;12.70;55.10;;;;;;4134470;28;20668;-82
2021/05/04 08:59:23;;;;;;;8.80;1.50;;;12.70;55.40;;;;;;4130529;28;20223;-84
2021/05/04 09:01:25;;;;;;;3.83;1.73;;;12.80;55.00;;;;;;4133444;28;20317;-82
2021/05/04 09:03:33;;;;;;;5.37;1.50;;;12.80;55.60;;;;;;4135021;28;20207;-82
2021/05/04 09:05:40;;;;;;;2.67;1.60;;;12.80;55.30;;;;;;4135217;28;20811;-82
2021/05/04 09:07:42;;;;;;;3.17;1.50;;;12.70;56.60;;;;;;4133410;28;20680;-83
2021/05/04 09:10:03;;;;;;;2.93;1.40;;;12.70;57.30;;;;;;4135741;28;20957;-84
2021/05/04 09:12:09;;;;;;;2.57;1.80;;;12.60;57.00;;;;;;4134381;28;20233;-81
2021/05/04 09:14:16;;;;;;;4.80;1.50;;;12.60;57.60;;;;;;4132430;28;20225;-82
2021/05/04 09:16:28;;;;;;;5.93;1.60;;;12.60;57.40;;;;;;4136765;28;20257;-82
2021/05/04 09:21:06;;;;;;;2.70;1.60;;;12.50;59.00;;;;;;4135197;28;20253;-83
2021/05/04 09:23:09;;;;;;;4.47;1.80;;;12.50;58.90;;;;;;4134454;28;20258;-82
2021/05/04 09:25:32;;;;;;;2.43;1.40;;;12.50;59.20;;;;;;4143185;28;20235;-81
2021/05/04 09:27:34;;;;;;;4.50;1.70;;;12.60;60.10;;;;;;4143431;28;20218;-82
2021/05/04 09:29:38;;;;;;;2.03;1.33;;;12.50;60.30;;;;;;4136504;28;20216;-79
2021/05/04 09:31:41;;;;;;;2.10;1.40;;;12.50;59.70;;;;;;4131210;28;20226;-80
2021/05/04 09:33:42;;;;;;;5.87;1.57;;;12.60;57.40;;;;;;4135492;28;20244;-83
2021/05/04 09:35:43;;;;;;;5.63;1.70;;;12.70;57.50;;;;;;4135073;28;20712;-82
2021/05/04 09:37:44;;;;;;;6.43;1.70;;;12.70;57.20;;;;;;4139887;28;20297;-82
2021/05/04 09:39:45;;;;;;;5.53;1.47;;;12.70;57.50;;;;;;4132398;28;20223;-79
2021/05/04 09:41:47;;;;;;;2.93;1.30;;;12.70;57.20;;;;;;4134665;28;20247;-80
2021/05/04 09:43:49;;;;;;;2.83;1.90;;;12.80;57.60;;;;;;4132533;28;20206;-79
2021/05/04 09:45:52;;;;;;;1.87;1.47;;;12.80;57.80;;;;;;4133140;28;20241;-79
2021/05/04 09:48:24;;;;;;;39.07;22.03;;;12.90;58.00;;;;;;4142441;28;20569;-79
2021/05/04 09:50:25;;;;;;;12.43;7.07;;;13.10;57.00;;;;;;4142488;28;20299;-82
2021/05/04 09:52:33;;;;;;;2.40;2.03;;;13.10;56.30;;;;;;4146734;28;20274;-78
2021/05/04 09:54:34;;;;;;;2.07;1.30;;;13.30;55.70;;;;;;4134860;28;20219;-78
2021/05/04 09:56:37;;;;;;;2.20;1.23;;;13.40;54.50;;;;;;4140133;28;20210;-79
2021/05/04 09:58:42;;;;;;;3.23;1.40;;;13.70;54.40;;;;;;4142155;28;20204;-79
2021/05/04 10:00:44;;;;;;;6.57;1.60;;;13.90;53.50;;;;;;4142849;28;20310;-78
2021/05/04 10:02:47;;;;;;;2.10;1.40;;;14.10;51.70;;;;;;4141591;28;20459;-78
2021/05/04 10:04:50;;;;;;;6.70;1.40;;;14.20;51.60;;;;;;4134845;28;20231;-80
2021/05/04 10:06:51;;;;;;;1.93;1.40;;;14.40;50.80;;;;;;4143436;28;20299;-79
2021/05/04 10:08:53;;;;;;;3.33;1.40;;;14.60;49.70;;;;;;4140975;28;20658;-82
2021/05/04 10:10:55;;;;;;;1.87;1.43;;;14.70;48.60;;;;;;4140073;28;20301;-80
2021/05/04 10:12:57;;;;;;;4.33;1.33;;;14.70;48.20;;;;;;4142489;28;20863;-77
2021/05/04 10:15:03;;;;;;;3.07;1.43;;;14.80;48.10;;;;;;4133398;28;20275;-81
2021/05/04 10:17:05;;;;;;;3.17;1.53;;;14.90;47.40;;;;;;4142235;28;20261;-79
2021/05/04 10:19:07;;;;;;;5.00;1.43;;;15.10;47.70;;;;;;4139246;28;20273;-81
2021/05/04 10:21:09;;;;;;;2.97;1.10;;;15.40;47.80;;;;;;4138049;28;20595;-80
2021/05/04 10:23:12;;;;;;;3.33;1.30;;;15.40;46.70;;;;;;4139009;28;20675;-82
2021/05/04 10:25:17;;;;;;;4.60;1.50;;;15.50;46.00;;;;;;4131457;28;20702;-79
2021/05/04 10:27:20;;;;;;;3.57;1.40;;;15.40;46.20;;;;;;4131209;28;20225;-80
2021/05/04 10:29:23;;;;;;;3.73;1.70;;;15.20;46.50;;;;;;4138557;28;20494;-82
2021/05/04 10:31:35;;;;;;;3.60;1.70;;;15.10;47.40;;;;;;4136856;28;20242;-81
2021/05/04 10:33:41;;;;;;;4.57;1.67;;;15.10;47.90;;;;;;4134293;28;20246;-81
2021/05/04 10:35:45;;;;;;;39.10;21.83;;;14.70;48.70;;;;;;4133774;28;20245;-82
2021/05/04 10:40:47;;;;;;;2.80;1.97;;;14.60;48.80;;;;;;3999556;29;20310;-79
2021/05/04 10:42:49;;;;;;;4.17;1.60;;;14.70;49.20;;;;;;4035362;29;20214;-79
2021/05/04 10:45:07;;;;;;;2.93;1.33;;;14.60;48.90;;;;;;4067421;28;20333;-80
2021/05/04 10:47:09;;;;;;;2.30;1.37;;;14.60;48.90;;;;;;4135530;28;20301;-79